MMRX/REX METAR and TAF weather

Enter ICAO airport designator
Station Type Date Time Source
MMRX METAR 2019/06/26 15:40 UTC NOAA

MMRX 261540Z 14009KT 7SM SCT008 BKN015 31/22 A3003 RMK 8/500 HZY


Station Type Date Time Source
MMRX Decoded METAR 2019/06/26 15:40 UTC NOAA

Reynosa International Airport , Mexico (MMRX) 26-01N 098-14W
Jun 26, 2019 - 11:40 AM EDT / 2019.06.26 1540 UTC
Wind: from the SE (140 degrees) at 10 MPH (9 KT):0
Visibility: 7 mile(s):0
Sky conditions: mostly cloudy
Temperature: 87 F (31 C)
Heat index: 92.3 F (33.5 C):1
Dew Point: 71 F (22 C)
Relative Humidity: 58%
Pressure (altimeter): 30.03 in. Hg (1016 hPa)
ob: MMRX 261540Z 14009KT 7SM SCT008 BKN015 31/22 A3003 RMK 8/500 HZY
cycle: 15

Station Type Date Time Source
MMRX TAF 2019/06/26 06:31 UTC NOAA

TAF MMRX 260525Z 2606/2706 09008KT 6SM HZ SCT030 BKN070
TEMPO 2610/2614 3SM BR BKN015
FM261800 13015KT 6SM HZ SCT030 BKN100
TEMPO 2621/2701 6SM -RA BKN020CB
FM270300 13005KT 6SM HZ SCT015 BKN070

Example: see airport list